Time;durP1;ratioP1;P1;durP2;ratioP2;P2;SDS_P1;SDS_P2;PMS_P1;PMS_P2;Temp;Humidity;BMP_temperature;BMP_pressure;BME280_temperature;BME280_humidity;BME280_pressure;Samples;Min_cycle;Max_cycle;Signal;HPM_P1;HPM_P2
2023/07/10 00:01:47;;;;;;;10.63;5.50;;;23.00;99.90;;;;;;4163220;28;20215;-76
2023/07/10 00:03:52;;;;;;;13.60;6.03;;;22.40;99.90;;;;;;4163310;28;20347;-76
2023/07/10 00:05:54;;;;;;;15.43;6.30;;;21.90;99.90;;;;;;4165849;28;20230;-76
2023/07/10 00:07:56;;;;;;;12.93;6.13;;;21.70;99.90;;;;;;4160949;28;20806;-75
2023/07/10 00:10:00;;;;;;;10.63;6.10;;;21.50;99.90;;;;;;4162842;28;20662;-75
2023/07/10 00:12:02;;;;;;;12.57;5.90;;;21.40;99.90;;;;;;4164775;28;20701;-75
2023/07/10 00:14:06;;;;;;;13.30;6.10;;;21.40;99.90;;;;;;4164909;28;20206;-75
2023/07/10 00:16:13;;;;;;;10.80;5.93;;;21.30;99.90;;;;;;4166941;28;20252;-75
2023/07/10 00:18:17;;;;;;;10.00;6.47;;;21.30;99.90;;;;;;4163421;28;20306;-75
2023/07/10 00:20:21;;;;;;;9.87;6.57;;;21.30;99.90;;;;;;4166517;28;20284;-75
2023/07/10 00:22:26;;;;;;;10.63;6.37;;;21.30;99.90;;;;;;4172550;28;20230;-75
2023/07/10 00:24:27;;;;;;;15.43;6.50;;;21.20;99.90;;;;;;4171656;28;20648;-75
2023/07/10 00:26:30;;;;;;;8.73;6.00;;;21.20;99.90;;;;;;4175539;28;20254;-75
2023/07/10 00:28:31;;;;;;;11.50;5.83;;;21.20;99.90;;;;;;4163378;28;20210;-77
2023/07/10 00:30:33;;;;;;;16.83;6.60;;;21.20;99.90;;;;;;4165090;28;20312;-75
2023/07/10 00:32:37;;;;;;;12.10;6.13;;;21.20;99.90;;;;;;4164557;28;20209;-75
2023/07/10 00:34:38;;;;;;;9.17;6.00;;;21.10;99.90;;;;;;4161989;28;20843;-75
2023/07/10 00:36:40;;;;;;;9.30;5.77;;;21.10;99.90;;;;;;4162463;28;20241;-76
2023/07/10 00:38:42;;;;;;;8.07;5.40;;;21.20;99.90;;;;;;4159503;28;20217;-75
2023/07/10 00:40:46;;;;;;;10.23;6.07;;;21.10;99.90;;;;;;4161547;28;20233;-76
2023/07/10 00:42:51;;;;;;;9.37;5.80;;;21.20;99.90;;;;;;4160394;28;20309;-75
2023/07/10 00:44:58;;;;;;;7.60;6.00;;;21.10;99.90;;;;;;4158071;28;20226;-75
2023/07/10 00:47:04;;;;;;;10.57;5.57;;;21.10;99.90;;;;;;4160284;28;20241;-74
2023/07/10 00:49:13;;;;;;;9.33;5.80;;;21.20;99.90;;;;;;4163368;28;20782;-74
2023/07/10 00:51:20;;;;;;;7.00;5.43;;;21.20;99.90;;;;;;4161820;28;20221;-75
2023/07/10 00:53:28;;;;;;;7.83;5.67;;;21.20;99.90;;;;;;4163940;28;20210;-73
2023/07/10 00:55:34;;;;;;;6.90;5.40;;;21.20;99.90;;;;;;4160749;28;20234;-74
2023/07/10 00:57:39;;;;;;;11.03;5.30;;;21.20;99.90;;;;;;4163577;28;20237;-74
2023/07/10 00:59:42;;;;;;;9.10;5.87;;;21.20;99.90;;;;;;4157378;28;20308;-73
2023/07/10 01:02:19;;;;;;;8.10;5.50;;;21.20;99.90;;;;;;4158014;28;20310;-73
2023/07/10 01:04:22;;;;;;;8.50;5.83;;;21.20;99.90;;;;;;4154612;28;20237;-74
2023/07/10 01:06:27;;;;;;;9.10;5.57;;;21.10;99.90;;;;;;4162906;28;20325;-73
2023/07/10 01:08:30;;;;;;;7.70;5.40;;;21.20;99.90;;;;;;4163358;28;20216;-74
2023/07/10 01:10:32;;;;;;;7.03;5.27;;;21.20;99.90;;;;;;4163208;28;20211;-73
2023/07/10 01:12:34;;;;;;;9.20;6.23;;;21.20;99.90;;;;;;4157308;28;20577;-76
2023/07/10 01:14:36;;;;;;;8.73;6.00;;;21.20;99.90;;;;;;4159310;28;20685;-74
2023/07/10 01:16:38;;;;;;;7.50;5.80;;;21.20;99.90;;;;;;4255800;22;20314;-72
2023/07/10 01:18:42;;;;;;;8.23;6.23;;;21.20;99.90;;;;;;4175965;28;20214;-71
2023/07/10 01:20:47;;;;;;;9.87;5.37;;;21.20;99.90;;;;;;4178198;28;20217;-72
2023/07/10 01:22:51;;;;;;;10.57;5.87;;;21.20;99.90;;;;;;4177912;28;20565;-71
2023/07/10 01:24:53;;;;;;;9.43;5.90;;;21.20;99.90;;;;;;4177656;28;20329;-72
2023/07/10 01:26:56;;;;;;;7.87;5.67;;;21.20;99.90;;;;;;4177353;28;20267;-72
2023/07/10 01:28:59;;;;;;;8.07;5.63;;;21.20;99.90;;;;;;4175919;28;20218;-71
2023/07/10 01:31:04;;;;;;;8.33;5.50;;;21.20;99.90;;;;;;4174998;28;20305;-72
2023/07/10 01:33:10;;;;;;;7.97;5.57;;;21.20;99.90;;;;;;4178220;28;20244;-72
2023/07/10 01:35:17;;;;;;;8.23;5.53;;;21.20;99.90;;;;;;4173978;28;20259;-71
2023/07/10 01:37:19;;;;;;;7.27;5.60;;;21.10;99.90;;;;;;4171792;28;20213;-72
2023/07/10 01:39:33;;;;;;;7.67;5.40;;;21.10;99.90;;;;;;4172581;28;20209;-72
2023/07/10 01:41:39;;;;;;;8.47;6.00;;;21.10;99.90;;;;;;4173099;28;20299;-72
2023/07/10 01:43:41;;;;;;;7.23;5.60;;;21.10;99.90;;;;;;4174459;28;20216;-72
2023/07/10 01:45:45;;;;;;;9.43;5.50;;;21.10;99.90;;;;;;4177430;28;20329;-72
2023/07/10 01:47:52;;;;;;;8.70;5.73;;;21.10;99.90;;;;;;4175055;28;20214;-71
2023/07/10 01:49:57;;;;;;;8.03;5.80;;;21.10;99.90;;;;;;4176295;28;20213;-71
2023/07/10 01:52:02;;;;;;;9.83;5.63;;;21.10;99.90;;;;;;4177413;28;20204;-72
2023/07/10 01:54:04;;;;;;;7.23;5.80;;;21.10;99.90;;;;;;4177246;28;20326;-71
2023/07/10 01:56:08;;;;;;;8.40;5.70;;;21.10;99.90;;;;;;4175389;28;20328;-71
2023/07/10 01:58:11;;;;;;;8.80;6.30;;;21.10;99.90;;;;;;4175197;28;20303;-71
2023/07/10 02:00:17;;;;;;;8.63;5.43;;;21.10;99.90;;;;;;4177701;28;20895;-71
2023/07/10 02:02:19;;;;;;;8.17;6.00;;;21.10;99.90;;;;;;4176215;28;20206;-72
2023/07/10 02:04:21;;;;;;;7.33;5.73;;;21.10;99.90;;;;;;4175435;28;20203;-71
2023/07/10 02:06:23;;;;;;;7.70;5.43;;;21.20;99.90;;;;;;4174096;28;20329;-72
2023/07/10 02:08:25;;;;;;;6.93;5.60;;;21.20;99.90;;;;;;4175787;28;20213;-71
2023/07/10 02:10:27;;;;;;;8.77;5.80;;;21.20;99.90;;;;;;4178511;28;20207;-71
2023/07/10 02:12:30;;;;;;;7.03;5.37;;;21.20;99.90;;;;;;4175991;28;20308;-72
2023/07/10 02:14:32;;;;;;;8.37;5.47;;;21.20;99.90;;;;;;4176973;28;20819;-72
2023/07/10 02:16:35;;;;;;;6.63;5.73;;;21.20;99.90;;;;;;4175550;28;20250;-72
2023/07/10 02:18:36;;;;;;;7.40;5.63;;;21.20;99.90;;;;;;4175666;28;20255;-71
2023/07/10 02:20:40;;;;;;;6.50;5.33;;;21.20;99.90;;;;;;4176495;28;20770;-72
2023/07/10 02:22:42;;;;;;;7.80;5.63;;;21.20;99.90;;;;;;4176501;28;20216;-71
2023/07/10 02:24:44;;;;;;;8.47;5.23;;;21.10;99.90;;;;;;4176633;28;20232;-71
2023/07/10 02:26:46;;;;;;;6.23;5.27;;;21.10;99.90;;;;;;4180669;28;20760;-71
2023/07/10 02:28:49;;;;;;;8.97;6.03;;;21.10;99.90;;;;;;4180531;28;20206;-71
2023/07/10 02:30:51;;;;;;;9.43;6.00;;;21.20;99.90;;;;;;4181168;28;20677;-71
2023/07/10 02:32:53;;;;;;;7.07;5.53;;;21.10;99.90;;;;;;4181709;28;20302;-72
2023/07/10 02:34:55;;;;;;;8.53;5.80;;;21.20;99.90;;;;;;4181305;28;20212;-72
2023/07/10 02:36:57;;;;;;;8.53;6.00;;;21.10;99.90;;;;;;4180733;28;20252;-72
2023/07/10 02:39:00;;;;;;;8.57;6.00;;;21.20;99.90;;;;;;4181087;28;20309;-71
2023/07/10 02:41:02;;;;;;;7.77;5.83;;;21.20;99.90;;;;;;4182138;28;20207;-72
2023/07/10 02:43:04;;;;;;;13.93;6.33;;;21.20;99.90;;;;;;4181552;28;20320;-72
2023/07/10 02:45:08;;;;;;;7.73;5.80;;;21.20;99.90;;;;;;4182006;28;20272;-72
2023/07/10 02:47:10;;;;;;;7.23;5.63;;;21.20;99.90;;;;;;4180617;28;20240;-72
2023/07/10 02:49:12;;;;;;;6.87;5.73;;;21.20;99.90;;;;;;4182465;28;20722;-72
2023/07/10 02:51:14;;;;;;;8.53;5.83;;;21.20;99.90;;;;;;4182176;28;21080;-72
2023/07/10 02:53:15;;;;;;;25.37;10.93;;;21.20;99.90;;;;;;4178327;28;20296;-72
2023/07/10 02:55:17;;;;;;;47.47;18.97;;;21.20;99.90;;;;;;4181633;28;20237;-73
2023/07/10 02:57:19;;;;;;;33.87;16.03;;;21.20;99.90;;;;;;4181904;28;20255;-72
2023/07/10 02:59:27;;;;;;;25.87;13.73;;;21.20;99.90;;;;;;4180929;28;20307;-71
2023/07/10 03:01:30;;;;;;;20.60;11.03;;;21.10;99.90;;;;;;4180842;28;20211;-72
2023/07/10 03:03:32;;;;;;;17.03;9.40;;;21.10;99.90;;;;;;4180290;28;20224;-72
2023/07/10 03:05:34;;;;;;;12.63;8.00;;;21.10;99.90;;;;;;4181551;28;20242;-73
2023/07/10 03:07:36;;;;;;;12.80;7.67;;;21.10;99.90;;;;;;4181789;28;20303;-72
2023/07/10 03:09:38;;;;;;;10.77;6.37;;;21.10;99.90;;;;;;4181971;28;20214;-72
2023/07/10 03:11:40;;;;;;;10.43;6.40;;;21.00;99.90;;;;;;4183009;28;20234;-72
2023/07/10 03:13:42;;;;;;;7.77;6.07;;;21.00;99.90;;;;;;4180616;28;20590;-73
2023/07/10 03:15:43;;;;;;;8.43;6.17;;;21.00;99.90;;;;;;4178614;28;20233;-72
2023/07/10 03:17:46;;;;;;;9.33;6.37;;;21.00;99.90;;;;;;4181766;28;20625;-72
2023/07/10 03:19:48;;;;;;;8.23;5.97;;;21.00;99.90;;;;;;4180954;28;20241;-72
2023/07/10 03:21:50;;;;;;;7.73;5.60;;;21.00;99.90;;;;;;4182224;28;20214;-73
2023/07/10 03:23:52;;;;;;;7.57;6.00;;;21.00;99.90;;;;;;4179733;28;20216;-72
2023/07/10 03:25:54;;;;;;;12.03;6.27;;;21.00;99.90;;;;;;4181643;28;20223;-72
2023/07/10 03:27:56;;;;;;;8.60;6.17;;;21.10;99.90;;;;;;4180716;28;20207;-71
2023/07/10 03:29:58;;;;;;;8.47;5.77;;;21.10;99.90;;;;;;4181905;28;20216;-73
2023/07/10 03:32:00;;;;;;;10.03;5.87;;;21.10;99.90;;;;;;4180159;28;20299;-73
2023/07/10 03:34:04;;;;;;;8.13;5.97;;;21.10;99.90;;;;;;4181296;28;20290;-72
2023/07/10 03:36:08;;;;;;;11.47;6.20;;;21.10;99.90;;;;;;4180654;28;20312;-72
2023/07/10 03:38:10;;;;;;;8.17;6.10;;;21.10;99.90;;;;;;4177893;28;20637;-72
2023/07/10 03:40:13;;;;;;;10.50;6.00;;;21.10;99.90;;;;;;4177961;28;20275;-72
2023/07/10 03:42:13;;;;;;;8.97;5.50;;;21.20;99.90;;;;;;4179476;28;20215;-72
2023/07/10 03:44:15;;;;;;;7.83;5.70;;;21.20;99.90;;;;;;4178712;28;20229;-72
2023/07/10 03:46:18;;;;;;;9.53;6.10;;;21.20;99.90;;;;;;4179237;28;20689;-73
2023/07/10 03:48:20;;;;;;;9.00;5.83;;;21.20;99.90;;;;;;4177613;28;20300;-72
2023/07/10 03:50:22;;;;;;;8.37;5.37;;;21.30;99.90;;;;;;4176992;28;20247;-72
2023/07/10 03:52:24;;;;;;;7.90;5.43;;;21.30;99.90;;;;;;4177139;28;20213;-72
2023/07/10 03:54:26;;;;;;;12.20;5.00;;;21.30;99.90;;;;;;4179184;28;20808;-72
2023/07/10 03:56:28;;;;;;;7.40;5.40;;;21.40;99.90;;;;;;4179103;28;20261;-72
2023/07/10 03:58:32;;;;;;;7.67;5.57;;;21.40;99.90;;;;;;4174242;28;20315;-72
2023/07/10 04:00:35;;;;;;;6.67;5.30;;;21.50;99.90;;;;;;4176870;28;20316;-72
2023/07/10 04:02:37;;;;;;;8.43;5.50;;;21.50;99.90;;;;;;4180426;28;20219;-72
2023/07/10 04:04:39;;;;;;;9.43;5.77;;;21.50;99.90;;;;;;4178332;28;20209;-72
2023/07/10 04:06:43;;;;;;;9.27;5.97;;;21.60;99.90;;;;;;4178755;28;20316;-72
2023/07/10 04:08:47;;;;;;;10.23;6.53;;;21.60;99.90;;;;;;4179903;28;20209;-71
2023/07/10 04:10:53;;;;;;;13.27;6.90;;;21.50;99.90;;;;;;4174521;28;20718;-72
2023/07/10 04:12:55;;;;;;;11.60;7.00;;;21.20;99.90;;;;;;4178828;28;20260;-71
2023/07/10 04:14:57;;;;;;;10.73;6.33;;;20.90;99.90;;;;;;4176547;28;20239;-72
2023/07/10 04:16:59;;;;;;;12.70;6.73;;;20.50;99.90;;;;;;4178488;28;20236;-72
2023/07/10 04:19:03;;;;;;;11.50;6.83;;;20.10;99.90;;;;;;4176534;28;20585;-72
2023/07/10 04:21:11;;;;;;;9.63;6.53;;;19.80;99.90;;;;;;4176557;28;20254;-71
2023/07/10 04:23:14;;;;;;;10.37;7.27;;;19.70;99.90;;;;;;4177804;28;20307;-71
2023/07/10 04:25:16;;;;;;;11.00;6.50;;;19.60;99.90;;;;;;4176769;28;20207;-71
2023/07/10 04:27:18;;;;;;;8.67;6.70;;;19.50;99.90;;;;;;4178892;28;20214;-71
2023/07/10 04:29:20;;;;;;;8.53;6.80;;;19.40;99.90;;;;;;4177461;28;20709;-70
2023/07/10 04:31:23;;;;;;;9.80;7.20;;;19.40;99.90;;;;;;4177702;28;20213;-71
2023/07/10 04:33:26;;;;;;;8.93;6.70;;;19.40;99.90;;;;;;4177762;28;20222;-70
2023/07/10 04:35:28;;;;;;;9.00;6.70;;;19.40;99.90;;;;;;4173440;28;20325;-71
2023/07/10 04:37:30;;;;;;;10.60;7.00;;;19.40;99.90;;;;;;4177234;28;20261;-72
2023/07/10 04:39:33;;;;;;;8.40;6.70;;;19.40;99.90;;;;;;4178452;28;20641;-71
2023/07/10 04:41:35;;;;;;;8.17;6.27;;;19.50;99.90;;;;;;4177166;28;20214;-72
2023/07/10 04:43:37;;;;;;;9.00;5.97;;;19.50;99.90;;;;;;4176319;28;20295;-71
2023/07/10 04:45:39;;;;;;;10.80;7.23;;;19.60;99.90;;;;;;4176703;28;20244;-71
2023/07/10 04:47:41;;;;;;;9.33;6.53;;;19.60;99.90;;;;;;4175597;28;20210;-72
2023/07/10 04:49:43;;;;;;;8.43;6.07;;;19.70;99.90;;;;;;4177805;28;20206;-72
2023/07/10 04:51:45;;;;;;;12.03;6.10;;;19.70;99.90;;;;;;4178382;28;20215;-71
2023/07/10 04:53:47;;;;;;;11.00;6.50;;;19.70;99.90;;;;;;4176430;28;20256;-72
2023/07/10 04:55:53;;;;;;;12.83;6.23;;;19.90;99.90;;;;;;4176627;28;20353;-71
2023/07/10 04:57:55;;;;;;;12.93;6.97;;;19.80;99.90;;;;;;4175501;28;20267;-71
2023/07/10 04:59:57;;;;;;;23.40;8.07;;;19.80;99.90;;;;;;4178369;28;20344;-73
2023/07/10 05:01:59;;;;;;;16.50;8.57;;;19.70;99.90;;;;;;4179103;28;20209;-76
2023/07/10 05:04:01;;;;;;;15.50;9.13;;;19.40;99.90;;;;;;4175553;28;20260;-77
2023/07/10 05:06:03;;;;;;;11.83;7.20;;;19.30;99.90;;;;;;4177457;28;20222;-75
2023/07/10 05:08:05;;;;;;;13.23;6.70;;;19.20;99.90;;;;;;4180441;28;20214;-74
2023/07/10 05:10:07;;;;;;;12.97;7.73;;;19.10;99.90;;;;;;4177306;28;20210;-73
2023/07/10 05:12:11;;;;;;;12.27;7.27;;;19.00;99.90;;;;;;4178593;28;20198;-73
2023/07/10 05:14:13;;;;;;;10.90;7.77;;;18.90;99.90;;;;;;4178198;28;20247;-73
2023/07/10 05:16:15;;;;;;;16.13;7.77;;;18.90;99.90;;;;;;4173703;28;20314;-73
2023/07/10 05:18:17;;;;;;;13.00;8.07;;;18.90;99.90;;;;;;4179332;28;20225;-74
2023/07/10 05:20:18;;;;;;;11.57;7.57;;;18.90;99.90;;;;;;4177733;28;20229;-74
2023/07/10 05:22:20;;;;;;;13.57;8.27;;;18.90;99.90;;;;;;4177240;28;20236;-73
2023/07/10 05:24:22;;;;;;;12.60;7.80;;;18.90;99.90;;;;;;4178001;28;20298;-74
2023/07/10 05:26:24;;;;;;;15.67;8.53;;;18.90;99.90;;;;;;4176591;28;20238;-74
2023/07/10 05:28:28;;;;;;;16.53;8.83;;;19.00;99.90;;;;;;4175385;28;20218;-75
2023/07/10 05:30:30;;;;;;;11.67;8.70;;;19.00;99.90;;;;;;4177829;28;20241;-73
2023/07/10 05:32:32;;;;;;;13.10;8.93;;;19.00;99.90;;;;;;4175952;28;20199;-74
2023/07/10 05:34:34;;;;;;;14.27;8.97;;;19.00;99.90;;;;;;4177585;28;20237;-73
2023/07/10 05:36:36;;;;;;;13.43;9.87;;;19.00;99.90;;;;;;4178157;28;20311;-73
2023/07/10 05:38:38;;;;;;;31.57;9.63;;;19.10;99.90;;;;;;4176663;28;20683;-74
2023/07/10 05:40:42;;;;;;;15.77;8.90;;;19.10;99.90;;;;;;4177520;28;20680;-74
2023/07/10 05:42:44;;;;;;;15.57;8.80;;;19.10;99.90;;;;;;4177485;28;20300;-73
2023/07/10 05:44:47;;;;;;;15.17;8.60;;;19.10;99.90;;;;;;4177000;28;20742;-74
2023/07/10 05:46:51;;;;;;;13.10;8.00;;;19.20;99.90;;;;;;4176809;28;20233;-73
2023/07/10 05:48:55;;;;;;;11.17;7.93;;;19.20;99.90;;;;;;4177958;28;20225;-74
2023/07/10 05:50:57;;;;;;;10.30;7.27;;;19.30;99.90;;;;;;4177418;28;20659;-73
2023/07/10 05:52:58;;;;;;;11.00;7.80;;;19.30;99.90;;;;;;4177400;28;20312;-75
2023/07/10 05:55:00;;;;;;;13.23;7.87;;;19.40;99.90;;;;;;4175718;28;20563;-77
2023/07/10 05:57:02;;;;;;;10.43;7.90;;;19.30;99.90;;;;;;4177128;28;20637;-75
2023/07/10 05:59:03;;;;;;;11.10;7.37;;;19.30;99.90;;;;;;4173844;28;20344;-73
2023/07/10 06:01:07;;;;;;;12.70;7.47;;;19.30;99.90;;;;;;4168249;28;20218;-74
2023/07/10 06:03:09;;;;;;;10.27;7.33;;;19.30;99.90;;;;;;4163873;28;20217;-72
2023/07/10 06:05:11;;;;;;;10.10;6.93;;;19.40;99.90;;;;;;4161240;28;20301;-72
2023/07/10 06:07:13;;;;;;;11.40;8.10;;;19.30;99.90;;;;;;4172647;28;20240;-73
2023/07/10 06:09:15;;;;;;;11.97;8.20;;;19.30;99.90;;;;;;4177324;28;20239;-71
2023/07/10 06:11:18;;;;;;;13.60;7.87;;;19.40;99.90;;;;;;4179351;28;20225;-74
2023/07/10 06:13:21;;;;;;;12.73;8.30;;;19.40;99.90;;;;;;4176568;28;20674;-73
2023/07/10 06:15:23;;;;;;;10.60;7.70;;;19.40;99.90;;;;;;4171880;28;20214;-73
2023/07/10 06:17:26;;;;;;;12.20;8.30;;;19.40;99.90;;;;;;4177034;28;20217;-73
2023/07/10 06:19:32;;;;;;;12.73;8.50;;;19.40;99.90;;;;;;4176892;28;20277;-73
2023/07/10 06:21:36;;;;;;;12.17;8.87;;;19.40;99.90;;;;;;4174200;28;20225;-74
2023/07/10 06:23:39;;;;;;;11.57;8.90;;;19.40;99.90;;;;;;4172587;28;20234;-74
2023/07/10 06:25:43;;;;;;;11.13;8.10;;;19.40;99.90;;;;;;4174911;28;20650;-73
2023/07/10 06:27:45;;;;;;;11.13;8.00;;;19.40;99.90;;;;;;4174759;28;20229;-72
2023/07/10 06:29:51;;;;;;;10.10;8.13;;;19.50;99.90;;;;;;4176193;28;20211;-72
2023/07/10 06:31:53;;;;;;;11.70;8.10;;;19.50;99.90;;;;;;4175401;28;20707;-73
2023/07/10 06:33:56;;;;;;;16.17;8.27;;;19.60;99.90;;;;;;4175347;28;20226;-73
2023/07/10 06:35:59;;;;;;;10.83;7.23;;;19.70;99.90;;;;;;4168488;28;20230;-72
2023/07/10 06:38:01;;;;;;;12.30;7.87;;;19.70;99.90;;;;;;4173553;28;20648;-74
2023/07/10 06:40:11;;;;;;;13.20;7.80;;;19.80;99.90;;;;;;4171317;28;20216;-73
2023/07/10 06:42:13;;;;;;;9.83;7.50;;;19.80;99.90;;;;;;4168243;28;20218;-71
2023/07/10 06:44:16;;;;;;;17.03;8.63;;;19.80;99.90;;;;;;4170678;28;20238;-72
2023/07/10 06:46:18;;;;;;;13.60;7.93;;;19.80;99.90;;;;;;4174919;28;20237;-71
2023/07/10 06:48:20;;;;;;;15.63;7.77;;;19.80;99.90;;;;;;4174810;28;20222;-72
2023/07/10 06:50:23;;;;;;;9.10;6.87;;;19.70;99.90;;;;;;4171629;28;20728;-73
2023/07/10 06:52:25;;;;;;;11.87;7.30;;;19.70;99.90;;;;;;4165151;28;20689;-72
2023/07/10 06:54:29;;;;;;;11.17;7.03;;;19.70;99.90;;;;;;4170017;28;20218;-72
2023/07/10 06:56:31;;;;;;;14.37;7.40;;;19.80;99.90;;;;;;4174559;28;20218;-73
2023/07/10 06:58:34;;;;;;;10.77;7.00;;;19.80;99.90;;;;;;4173857;28;20301;-73
2023/07/10 07:00:36;;;;;;;9.67;6.90;;;19.80;99.90;;;;;;4175256;28;20937;-73
2023/07/10 07:02:38;;;;;;;9.73;7.03;;;19.80;99.90;;;;;;4176346;28;20303;-71
2023/07/10 07:04:41;;;;;;;9.23;6.43;;;19.90;99.90;;;;;;4176617;28;20626;-71
2023/07/10 07:06:44;;;;;;;9.07;7.10;;;19.90;99.90;;;;;;4174454;28;20321;-71
2023/07/10 07:08:48;;;;;;;9.67;6.77;;;20.00;99.90;;;;;;4176556;28;20697;-71
2023/07/10 07:10:51;;;;;;;10.00;6.90;;;20.10;99.90;;;;;;4177309;28;20206;-71
2023/07/10 07:12:53;;;;;;;10.63;6.53;;;20.10;99.90;;;;;;4177707;28;20210;-71
2023/07/10 07:14:55;;;;;;;12.23;7.07;;;20.20;99.90;;;;;;4178896;28;20212;-70
2023/07/10 07:16:57;;;;;;;9.60;7.07;;;20.30;99.90;;;;;;4178483;28;20290;-72
2023/07/10 07:18:59;;;;;;;8.63;6.70;;;20.30;99.90;;;;;;4179517;28;20208;-70
2023/07/10 07:21:01;;;;;;;8.67;6.17;;;20.40;99.90;;;;;;4176664;28;20216;-70
2023/07/10 07:23:04;;;;;;;11.70;8.67;;;20.50;99.90;;;;;;4179173;28;21113;-72
2023/07/10 07:25:07;;;;;;;14.27;7.73;;;20.50;99.90;;;;;;4178079;28;20211;-71
2023/07/10 07:27:09;;;;;;;13.90;6.70;;;20.60;99.90;;;;;;4175306;28;20316;-71
2023/07/10 07:29:11;;;;;;;11.67;6.87;;;20.70;99.90;;;;;;4179734;28;20207;-71
2023/07/10 07:31:13;;;;;;;10.20;7.07;;;20.80;99.90;;;;;;4179066;28;20220;-71
2023/07/10 07:33:15;;;;;;;10.83;7.50;;;20.80;99.90;;;;;;4179191;28;20212;-71
2023/07/10 07:35:17;;;;;;;9.23;6.97;;;20.90;99.90;;;;;;4177924;28;20225;-71
2023/07/10 07:37:19;;;;;;;10.07;6.93;;;21.00;99.90;;;;;;4178922;28;20205;-71
2023/07/10 07:39:27;;;;;;;8.70;6.53;;;21.10;99.90;;;;;;4176729;28;20232;-72
2023/07/10 07:41:31;;;;;;;8.80;6.60;;;21.20;99.90;;;;;;4176041;28;20216;-71
2023/07/10 07:43:34;;;;;;;9.70;6.80;;;21.20;99.90;;;;;;4177988;28;20216;-72
2023/07/10 07:45:35;;;;;;;14.50;7.27;;;21.40;99.90;;;;;;4176914;28;20335;-72
2023/07/10 07:47:40;;;;;;;9.30;6.97;;;21.40;99.90;;;;;;4179739;28;20238;-71
2023/07/10 07:49:42;;;;;;;10.40;7.40;;;21.50;99.90;;;;;;4177982;28;20221;-72
2023/07/10 07:51:43;;;;;;;14.23;7.03;;;21.50;99.90;;;;;;4177836;28;20214;-72
2023/07/10 07:53:45;;;;;;;9.27;6.47;;;21.70;99.90;;;;;;4179017;28;20217;-73
2023/07/10 07:55:49;;;;;;;11.40;6.90;;;21.70;99.90;;;;;;4177428;28;20318;-72
2023/07/10 07:57:51;;;;;;;12.73;7.63;;;21.80;99.90;;;;;;4179319;28;20214;-72
2023/07/10 07:59:53;;;;;;;10.90;6.70;;;22.00;99.90;;;;;;4178437;28;20723;-72
2023/07/10 08:01:54;;;;;;;13.80;7.00;;;22.00;99.90;;;;;;4174739;28;20766;-72
2023/07/10 08:03:56;;;;;;;14.27;7.17;;;22.20;99.90;;;;;;4177068;28;20294;-72
2023/07/10 08:05:58;;;;;;;10.93;7.27;;;22.30;99.90;;;;;;4178524;28;20238;-71
2023/07/10 08:08:00;;;;;;;12.50;6.50;;;22.40;99.90;;;;;;4178492;28;20319;-71
2023/07/10 08:10:03;;;;;;;11.97;7.20;;;22.50;99.90;;;;;;4178000;28;20217;-71
2023/07/10 08:12:08;;;;;;;13.27;6.50;;;22.60;99.90;;;;;;4177576;28;20210;-71
2023/07/10 08:14:10;;;;;;;13.03;6.33;;;22.80;99.90;;;;;;4176800;28;20225;-71
2023/07/10 08:16:12;;;;;;;13.50;7.10;;;22.90;99.90;;;;;;4178072;28;20238;-70
2023/07/10 08:18:14;;;;;;;9.73;7.03;;;23.00;99.90;;;;;;4176283;28;21099;-69
2023/07/10 08:20:16;;;;;;;10.07;7.10;;;23.10;99.90;;;;;;4175189;28;20932;-69
2023/07/10 08:22:18;;;;;;;12.70;7.20;;;23.20;99.90;;;;;;4178221;28;20210;-69
2023/07/10 08:24:20;;;;;;;12.13;7.30;;;23.20;99.90;;;;;;4175177;28;20207;-71
2023/07/10 08:26:22;;;;;;;10.03;7.07;;;23.30;99.90;;;;;;4177471;28;20773;-70
2023/07/10 08:28:25;;;;;;;13.53;7.40;;;23.40;99.90;;;;;;4180019;28;20309;-70
2023/07/10 08:30:27;;;;;;;12.80;7.63;;;23.50;99.90;;;;;;4176550;28;20202;-70
2023/07/10 08:32:29;;;;;;;13.07;7.50;;;23.60;99.90;;;;;;4178347;28;20211;-70
2023/07/10 08:34:32;;;;;;;11.30;7.13;;;23.70;99.90;;;;;;4176543;28;20230;-70
2023/07/10 08:36:34;;;;;;;15.37;7.60;;;23.70;99.90;;;;;;4176698;28;20237;-71
2023/07/10 08:38:37;;;;;;;11.87;6.87;;;23.70;99.90;;;;;;4177503;28;20209;-70
2023/07/10 08:40:42;;;;;;;12.60;7.07;;;23.70;99.90;;;;;;4175114;28;20266;-70
2023/07/10 08:42:44;;;;;;;8.93;6.27;;;23.80;99.90;;;;;;4176649;28;20233;-71
2023/07/10 08:44:51;;;;;;;10.73;6.90;;;23.80;99.90;;;;;;4178064;28;21871;-71
2023/07/10 08:46:55;;;;;;;14.73;7.50;;;24.00;99.90;;;;;;4177346;28;20316;-71
2023/07/10 08:49:09;;;;;;;14.77;7.03;;;24.10;99.90;;;;;;4178870;28;20264;-70
2023/07/10 08:51:23;;;;;;;16.23;7.43;;;24.10;99.90;;;;;;4176450;28;20663;-70
2023/07/10 08:53:28;;;;;;;11.23;7.30;;;24.20;99.90;;;;;;4179167;28;20214;-70
2023/07/10 08:55:45;;;;;;;22.03;7.70;;;24.30;99.90;;;;;;4177984;28;20539;-70
2023/07/10 08:57:55;;;;;;;14.40;7.77;;;24.30;99.90;;;;;;4176373;28;20402;-70
2023/07/10 09:00:05;;;;;;;13.73;7.30;;;24.50;99.90;;;;;;4176796;28;20233;-71
2023/07/10 09:02:25;;;;;;;11.80;7.17;;;24.60;99.90;;;;;;4179526;28;20208;-70
2023/07/10 09:04:27;;;;;;;14.87;7.40;;;24.60;99.90;;;;;;4175585;28;20679;-70
2023/07/10 09:06:40;;;;;;;10.00;6.80;;;24.80;99.90;;;;;;4177125;28;20272;-70
2023/07/10 09:08:45;;;;;;;12.50;7.13;;;24.80;99.90;;;;;;4177301;28;20225;-70
2023/07/10 09:10:51;;;;;;;14.60;7.60;;;25.00;99.90;;;;;;4176722;28;20214;-70
2023/07/10 09:12:55;;;;;;;10.33;7.00;;;25.20;99.90;;;;;;4177441;28;20576;-70
2023/07/10 09:15:02;;;;;;;11.57;7.00;;;25.30;99.90;;;;;;4174888;28;20203;-70
2023/07/10 09:17:16;;;;;;;14.40;7.10;;;25.30;99.90;;;;;;4174542;28;20336;-71
2023/07/10 09:19:20;;;;;;;9.13;6.80;;;25.40;99.90;;;;;;4160241;28;20314;-71
2023/07/10 09:21:25;;;;;;;12.60;6.80;;;25.60;99.90;;;;;;4177884;28;20209;-72
2023/07/10 09:23:30;;;;;;;9.77;6.73;;;25.80;99.90;;;;;;4177512;28;20211;-72
2023/07/10 09:25:37;;;;;;;9.00;6.37;;;25.90;99.90;;;;;;4177097;28;20206;-72
2023/07/10 09:27:42;;;;;;;16.47;6.63;;;26.00;99.90;;;;;;4179093;28;20317;-72
2023/07/10 09:29:47;;;;;;;13.30;7.13;;;26.10;99.90;;;;;;4177560;28;20267;-71
2023/07/10 09:31:55;;;;;;;10.00;6.27;;;26.20;99.90;;;;;;4175619;28;20218;-71
2023/07/10 09:34:01;;;;;;;8.33;6.20;;;26.40;99.90;;;;;;4176253;28;20344;-71
2023/07/10 09:36:03;;;;;;;12.20;6.10;;;26.40;99.90;;;;;;4172089;28;20249;-71
2023/07/10 09:38:05;;;;;;;9.33;6.33;;;26.60;99.90;;;;;;4178382;28;20206;-71
2023/07/10 09:40:21;;;;;;;9.43;6.30;;;26.60;99.90;;;;;;4174477;28;20297;-71
2023/07/10 09:42:34;;;;;;;14.00;8.23;;;26.80;99.90;;;;;;4176482;28;20261;-71
2023/07/10 09:44:39;;;;;;;11.07;7.73;;;27.00;99.90;;;;;;4177087;28;20210;-71
2023/07/10 09:46:40;;;;;;;10.33;6.43;;;27.20;99.90;;;;;;4176269;28;20234;-71
2023/07/10 09:48:46;;;;;;;11.50;6.70;;;27.50;99.90;;;;;;4176880;28;20616;-71
2023/07/10 09:50:52;;;;;;;9.03;6.67;;;27.70;99.90;;;;;;4175999;28;20221;-71
2023/07/10 09:52:57;;;;;;;8.47;5.90;;;28.00;99.90;;;;;;4176182;28;20220;-71
2023/07/10 09:55:01;;;;;;;7.70;5.97;;;28.20;99.90;;;;;;4176656;28;20262;-72
2023/07/10 09:57:04;;;;;;;10.25;6.18;;;28.30;99.90;;;;;;4180051;28;20318;-72
2023/07/10 09:59:21;;;;;;;9.38;5.88;;;28.50;99.90;;;;;;4178543;28;20217;-72
2023/07/10 10:01:25;;;;;;;10.20;6.20;;;28.60;99.90;;;;;;4179165;28;20202;-72
2023/07/10 10:03:31;;;;;;;8.25;5.70;;;28.60;99.90;;;;;;4177446;28;20233;-72
2023/07/10 10:05:42;;;;;;;8.75;6.20;;;28.70;99.90;;;;;;4179803;28;20213;-72
2023/07/10 10:07:45;;;;;;;9.02;5.90;;;28.70;99.90;;;;;;4176452;28;20272;-72
2023/07/10 10:09:48;;;;;;;7.32;5.72;;;28.70;99.90;;;;;;4181372;28;20210;-73
2023/07/10 10:11:55;;;;;;;7.82;5.40;;;28.60;99.90;;;;;;4174471;28;20215;-72
2023/07/10 10:14:00;;;;;;;7.32;5.53;;;28.60;99.90;;;;;;4180736;28;20561;-72
2023/07/10 10:16:06;;;;;;;11.23;5.50;;;28.70;99.90;;;;;;4177005;28;20258;-75
2023/07/10 10:18:21;;;;;;;9.93;5.75;;;28.70;99.90;;;;;;4180423;28;20210;-72
2023/07/10 10:20:29;;;;;;;8.30;5.22;;;28.70;99.90;;;;;;4176396;28;20213;-72
2023/07/10 10:22:33;;;;;;;8.38;5.38;;;28.70;99.90;;;;;;4181000;28;20296;-69
2023/07/10 10:24:35;;;;;;;9.48;5.32;;;28.70;99.90;;;;;;4178515;28;20202;-71
2023/07/10 10:26:57;;;;;;;6.65;4.90;;;28.80;99.90;;;;;;4181956;28;20233;-71
2023/07/10 10:29:18;;;;;;;9.98;5.47;;;29.00;99.90;;;;;;4175808;28;20293;-72
2023/07/10 10:31:27;;;;;;;7.40;4.72;;;29.10;99.90;;;;;;4176448;28;20209;-70
2023/07/10 10:33:39;;;;;;;6.70;4.68;;;29.20;99.90;;;;;;4175219;28;20220;-71
2023/07/10 10:35:56;;;;;;;8.02;4.80;;;29.30;99.90;;;;;;4175613;28;20257;-71
2023/07/10 10:38:20;;;;;;;5.95;4.88;;;29.40;99.90;;;;;;4175682;28;20206;-69
2023/07/10 10:40:31;;;;;;;6.78;4.60;;;29.40;99.90;;;;;;4173690;28;20671;-72